createdAt,value
2022-07-31T00:00:28.837Z,20.06
2022-07-31T00:02:57.588Z,20.10
2022-07-31T00:05:26.553Z,20.07
2022-07-31T00:07:54.963Z,20.16
2022-07-31T00:10:23.050Z,20.19
2022-07-31T00:12:52.818Z,20.34
2022-07-31T00:15:21.205Z,20.31
2022-07-31T00:17:49.459Z,20.28
2022-07-31T00:20:18.847Z,20.30
2022-07-31T00:22:48.781Z,20.32
2022-07-31T00:25:17.912Z,20.36
2022-07-31T00:27:46.108Z,20.34
2022-07-31T00:30:16.956Z,20.33
2022-07-31T00:32:45.308Z,20.26
2022-07-31T00:35:14.063Z,20.31
2022-07-31T00:37:43.162Z,20.31
2022-07-31T00:40:14.101Z,20.21
2022-07-31T00:42:42.463Z,20.21
2022-07-31T00:45:13.733Z,20.20
2022-07-31T00:47:43.600Z,20.21
2022-07-31T00:50:12.819Z,20.15
2022-07-31T00:52:40.969Z,20.17
2022-07-31T00:55:09.978Z,20.15
2022-07-31T00:57:38.558Z,20.12
2022-07-31T01:00:08.066Z,20.12
2022-07-31T01:02:36.971Z,19.95
2022-07-31T01:05:07.488Z,19.87
2022-07-31T01:07:35.412Z,19.87
2022-07-31T01:10:07.566Z,19.87
2022-07-31T01:12:43.699Z,19.87
2022-07-31T01:15:14.643Z,19.79
2022-07-31T01:17:45.393Z,19.77
2022-07-31T01:20:16.138Z,19.85
2022-07-31T01:23:00.622Z,19.86
2022-07-31T01:25:46.292Z,19.82
2022-07-31T01:28:35.689Z,19.78
2022-07-31T01:31:26.225Z,19.73
2022-07-31T01:34:03.882Z,19.78
2022-07-31T01:36:35.208Z,19.81
2022-07-31T01:39:05.229Z,19.79
2022-07-31T01:41:37.946Z,19.81
2022-07-31T01:44:07.885Z,19.78
2022-07-31T01:46:45.812Z,19.78
2022-07-31T01:49:19.071Z,19.75
2022-07-31T01:51:49.112Z,19.74
2022-07-31T01:54:21.258Z,19.66
2022-07-31T01:56:50.814Z,19.64
2022-07-31T01:59:22.894Z,19.62
2022-07-31T02:02:10.199Z,19.59
2022-07-31T02:04:39.118Z,19.42
2022-07-31T02:07:08.249Z,19.40
2022-07-31T02:09:53.890Z,19.33
2022-07-31T02:12:33.146Z,19.29
2022-07-31T02:15:03.875Z,19.28
2022-07-31T02:17:34.894Z,19.18
2022-07-31T02:20:32.681Z,19.03
2022-07-31T02:23:01.471Z,18.98
2022-07-31T02:25:30.850Z,18.95
2022-07-31T02:28:06.764Z,18.95
2022-07-31T02:30:39.426Z,18.97
2022-07-31T02:33:16.734Z,18.97
2022-07-31T02:35:49.006Z,18.91
2022-07-31T02:38:22.505Z,18.84
2022-07-31T02:40:52.159Z,18.92
2022-07-31T02:43:21.603Z,18.96
2022-07-31T02:45:49.861Z,18.94
2022-07-31T02:48:19.504Z,18.85
2022-07-31T02:50:50.702Z,18.86
2022-07-31T02:53:19.253Z,18.79
2022-07-31T02:55:53.593Z,18.77
2022-07-31T02:58:21.553Z,18.80
2022-07-31T03:00:58.615Z,18.79
2022-07-31T03:03:28.437Z,18.70
2022-07-31T03:05:56.526Z,18.73
2022-07-31T03:08:24.537Z,18.73
2022-07-31T03:10:55.767Z,18.67
2022-07-31T03:13:29.781Z,18.66
2022-07-31T03:15:59.681Z,18.66
2022-07-31T03:18:30.204Z,18.64
2022-07-31T03:20:58.355Z,18.60
2022-07-31T03:23:36.041Z,18.53
2022-07-31T03:26:09.032Z,18.56
2022-07-31T03:28:37.498Z,18.57
2022-07-31T03:31:07.829Z,18.51
2022-07-31T03:33:38.472Z,18.57
2022-07-31T03:36:06.569Z,18.43
2022-07-31T03:38:39.642Z,18.43
2022-07-31T03:41:18.861Z,18.38
2022-07-31T03:43:49.061Z,18.38
2022-07-31T03:46:22.566Z,18.33
2022-07-31T03:48:53.304Z,18.25
2022-07-31T03:51:23.245Z,18.23
2022-07-31T03:53:51.665Z,18.21
2022-07-31T03:56:51.203Z,18.30
2022-07-31T03:59:21.566Z,18.25
2022-07-31T04:01:58.018Z,18.23
2022-07-31T04:04:54.454Z,18.21
2022-07-31T04:07:22.721Z,18.20
2022-07-31T04:09:50.919Z,18.22
2022-07-31T04:12:19.072Z,18.24
2022-07-31T04:14:47.080Z,18.17
2022-07-31T04:17:15.163Z,18.07
2022-07-31T04:19:43.178Z,17.97
2022-07-31T04:22:12.621Z,17.98
2022-07-31T04:24:40.762Z,17.94
2022-07-31T04:27:32.321Z,17.93
2022-07-31T04:30:00.249Z,17.92
2022-07-31T04:32:29.016Z,17.92
2022-07-31T04:35:03.978Z,17.93
2022-07-31T04:37:33.765Z,17.91
2022-07-31T04:40:01.679Z,17.91
2022-07-31T04:42:32.898Z,17.92
2022-07-31T04:45:01.533Z,17.91
2022-07-31T04:47:29.583Z,17.95
2022-07-31T04:49:58.392Z,17.99
2022-07-31T04:52:27.841Z,17.97
2022-07-31T04:55:04.427Z,18.02
2022-07-31T04:57:33.221Z,18.06
2022-07-31T05:00:02.875Z,18.12
2022-07-31T05:02:33.499Z,18.15
2022-07-31T05:05:01.701Z,18.14
2022-07-31T05:07:36.169Z,17.96
2022-07-31T05:10:31.383Z,17.89
2022-07-31T05:12:59.398Z,17.74
2022-07-31T05:15:27.451Z,17.73
2022-07-31T05:17:57.464Z,17.66
2022-07-31T05:20:51.706Z,17.57
2022-07-31T05:23:28.015Z,17.46
2022-07-31T05:26:12.416Z,17.45
2022-07-31T05:28:41.382Z,17.36
2022-07-31T05:31:11.442Z,17.47
2022-07-31T05:33:39.785Z,17.43
2022-07-31T05:36:08.189Z,17.39
2022-07-31T05:38:36.122Z,17.43
2022-07-31T05:41:33.368Z,17.56
2022-07-31T05:44:18.988Z,17.69
2022-07-31T05:46:48.152Z,17.75
2022-07-31T05:49:16.326Z,17.73
2022-07-31T05:51:46.870Z,17.74
2022-07-31T05:54:15.055Z,17.79
2022-07-31T05:57:02.869Z,17.69
2022-07-31T05:59:39.803Z,17.80
2022-07-31T06:02:08.212Z,17.77
2022-07-31T06:04:54.688Z,17.74
2022-07-31T06:07:22.733Z,17.71
2022-07-31T06:09:50.729Z,17.65
2022-07-31T06:12:20.828Z,17.65
2022-07-31T06:14:48.834Z,17.69
2022-07-31T06:17:20.594Z,17.76
2022-07-31T06:19:50.528Z,17.76
2022-07-31T06:22:18.530Z,17.63
2022-07-31T06:24:47.097Z,17.58
2022-07-31T06:27:23.276Z,17.57
2022-07-31T06:30:03.213Z,17.60
2022-07-31T06:32:31.226Z,17.74
2022-07-31T06:34:59.359Z,17.84
2022-07-31T06:37:29.078Z,17.95
2022-07-31T06:39:58.254Z,17.98
2022-07-31T06:42:46.749Z,18.01
2022-07-31T06:45:30.038Z,18.08
2022-07-31T06:48:26.733Z,18.12
2022-07-31T06:51:29.137Z,18.15
2022-07-31T06:53:52.649Z,18.12
2022-07-31T06:56:21.502Z,18.17
2022-07-31T06:58:49.791Z,18.16
2022-07-31T07:01:19.291Z,18.18
2022-07-31T07:03:47.868Z,18.21
2022-07-31T07:06:16.220Z,18.22
2022-07-31T07:08:44.508Z,18.24
2022-07-31T07:11:16.328Z,18.19
2022-07-31T07:13:46.692Z,18.16
2022-07-31T07:16:19.236Z,18.12
2022-07-31T07:18:47.348Z,18.09
2022-07-31T07:21:15.940Z,18.20
2022-07-31T07:23:43.917Z,18.18
2022-07-31T07:26:21.647Z,18.11
2022-07-31T07:28:49.862Z,18.05
2022-07-31T07:31:20.129Z,18.11
2022-07-31T07:33:48.906Z,18.13
2022-07-31T07:36:24.057Z,18.05
2022-07-31T07:39:10.246Z,18.11
2022-07-31T07:41:39.087Z,18.10
2022-07-31T07:44:08.400Z,17.96
2022-07-31T07:46:37.674Z,18.16
2022-07-31T07:49:07.593Z,18.15
2022-07-31T07:52:00.584Z,18.11
2022-07-31T07:54:40.764Z,18.13
2022-07-31T07:57:21.928Z,18.20
2022-07-31T08:00:10.921Z,18.39
2022-07-31T08:03:02.810Z,18.62
2022-07-31T08:05:39.932Z,18.88
2022-07-31T08:08:07.998Z,18.92
2022-07-31T08:10:59.188Z,18.81
2022-07-31T08:13:40.602Z,18.87
2022-07-31T08:16:08.872Z,18.79
2022-07-31T08:18:46.409Z,18.85
2022-07-31T08:21:15.121Z,19.30
2022-07-31T08:23:43.270Z,19.46
2022-07-31T08:26:11.549Z,19.53
2022-07-31T08:28:41.589Z,19.55
2022-07-31T08:31:18.205Z,19.66
2022-07-31T08:34:02.901Z,19.75
2022-07-31T08:36:31.446Z,19.80
2022-07-31T08:38:59.570Z,19.87
2022-07-31T08:41:46.901Z,20.01
2022-07-31T08:44:15.450Z,20.06
2022-07-31T08:46:43.460Z,20.12
2022-07-31T08:49:16.444Z,20.04
2022-07-31T08:51:51.636Z,20.02
2022-07-31T08:54:48.184Z,19.85
2022-07-31T08:57:16.867Z,19.79
2022-07-31T08:59:44.992Z,19.81
2022-07-31T09:02:15.810Z,19.65
2022-07-31T09:05:06.365Z,19.53
2022-07-31T09:07:34.842Z,19.44
2022-07-31T09:10:02.939Z,19.33
2022-07-31T09:12:33.854Z,19.31
2022-07-31T09:15:19.911Z,19.26
2022-07-31T09:17:51.877Z,19.16
2022-07-31T09:20:26.054Z,19.21
2022-07-31T09:23:06.049Z,19.07
2022-07-31T09:25:35.863Z,18.96
2022-07-31T09:28:06.582Z,18.93
2022-07-31T09:30:35.925Z,18.97
2022-07-31T09:33:47.379Z,18.96
2022-07-31T09:36:34.952Z,18.90
2022-07-31T09:39:27.119Z,18.93
2022-07-31T09:42:16.892Z,19.00
2022-07-31T09:45:02.760Z,18.92
2022-07-31T09:47:33.409Z,18.96
2022-07-31T09:50:06.694Z,18.93
2022-07-31T09:52:36.664Z,18.88
2022-07-31T09:55:15.723Z,18.89
2022-07-31T09:57:53.494Z,18.93
2022-07-31T10:00:23.013Z,19.01
2022-07-31T10:02:53.803Z,19.03
2022-07-31T10:05:23.800Z,19.07
2022-07-31T10:07:55.075Z,19.08
2022-07-31T10:10:33.105Z,19.23
2022-07-31T10:13:25.204Z,19.43
2022-07-31T10:15:57.681Z,19.51
2022-07-31T10:18:48.896Z,19.66
2022-07-31T10:21:39.324Z,19.80
2022-07-31T10:24:15.844Z,19.78
2022-07-31T10:27:00.259Z,19.76
2022-07-31T10:29:32.862Z,19.78
2022-07-31T10:32:03.010Z,19.66
2022-07-31T10:34:34.830Z,19.62
2022-07-31T10:37:11.534Z,19.65
2022-07-31T10:40:21.165Z,19.68
2022-07-31T10:43:13.806Z,19.49
2022-07-31T10:45:47.757Z,19.29
2022-07-31T10:48:32.066Z,19.14
2022-07-31T10:51:32.490Z,19.08
2022-07-31T10:54:18.409Z,19.07
2022-07-31T10:57:10.608Z,19.06
2022-07-31T10:59:44.879Z,19.41
2022-07-31T11:02:33.345Z,19.60
2022-07-31T11:05:30.474Z,19.75
2022-07-31T11:08:09.702Z,19.87
2022-07-31T11:11:03.608Z,19.87
2022-07-31T11:13:56.659Z,19.82
2022-07-31T11:16:51.204Z,19.77
2022-07-31T11:19:41.419Z,19.77
2022-07-31T11:22:30.578Z,19.81
2022-07-31T11:25:00.753Z,19.87
2022-07-31T11:27:31.965Z,19.94
2022-07-31T11:30:12.508Z,19.93
2022-07-31T11:32:41.577Z,19.80
2022-07-31T11:35:10.068Z,19.51
2022-07-31T11:37:46.606Z,19.44
2022-07-31T11:40:27.405Z,19.34
2022-07-31T11:43:24.868Z,19.26
2022-07-31T11:45:52.537Z,19.19
2022-07-31T11:48:24.563Z,19.11
2022-07-31T11:50:55.668Z,19.07
2022-07-31T11:53:23.878Z,19.08
2022-07-31T11:55:53.835Z,19.15
2022-07-31T11:58:23.890Z,19.17
2022-07-31T12:00:55.180Z,19.28
2022-07-31T12:03:26.522Z,19.50
2022-07-31T12:05:54.637Z,19.63
2022-07-31T12:08:24.293Z,20.00
2022-07-31T12:10:53.700Z,20.12
2022-07-31T12:13:22.985Z,20.05
2022-07-31T12:16:00.990Z,20.24
2022-07-31T12:18:30.622Z,20.25
2022-07-31T12:21:01.172Z,20.23
2022-07-31T12:23:41.803Z,20.23
2022-07-31T12:26:12.838Z,20.22
2022-07-31T12:28:41.267Z,20.24
2022-07-31T12:31:10.609Z,20.28
2022-07-31T12:33:44.012Z,20.32
2022-07-31T12:36:17.106Z,20.31
2022-07-31T12:38:48.209Z,20.47
2022-07-31T12:41:17.291Z,20.46
2022-07-31T12:43:51.283Z,20.41
2022-07-31T12:46:36.896Z,20.38
2022-07-31T12:49:05.475Z,20.43
2022-07-31T12:51:45.701Z,20.43
2022-07-31T12:54:18.023Z,20.35
2022-07-31T12:56:47.208Z,20.28
2022-07-31T12:59:15.560Z,20.29
2022-07-31T13:01:45.340Z,20.25
2022-07-31T13:04:19.103Z,20.31
2022-07-31T13:06:51.515Z,20.37
2022-07-31T13:09:20.077Z,20.28
2022-07-31T13:11:48.696Z,20.32
2022-07-31T13:14:17.242Z,20.28
2022-07-31T13:16:47.748Z,20.15
2022-07-31T13:19:16.787Z,20.03
2022-07-31T13:21:49.016Z,19.89
2022-07-31T13:24:19.581Z,19.91
2022-07-31T13:26:47.626Z,19.90
2022-07-31T13:29:16.101Z,19.81
2022-07-31T13:31:45.830Z,19.65
2022-07-31T13:34:14.076Z,19.74
2022-07-31T13:36:42.046Z,19.67
2022-07-31T13:39:10.145Z,19.66
2022-07-31T13:41:39.540Z,19.55
2022-07-31T13:44:08.341Z,19.58
2022-07-31T13:46:36.612Z,19.59
2022-07-31T13:49:08.922Z,19.61
2022-07-31T13:51:37.975Z,19.60
2022-07-31T13:54:06.260Z,19.64
2022-07-31T13:56:42.232Z,19.64
2022-07-31T13:59:13.206Z,19.73
2022-07-31T14:02:04.782Z,19.80
2022-07-31T14:04:32.715Z,19.83
2022-07-31T14:07:07.263Z,19.89
2022-07-31T14:09:36.006Z,19.94
2022-07-31T14:12:05.599Z,20.08
2022-07-31T14:14:34.550Z,20.16
2022-07-31T14:17:02.857Z,20.14
2022-07-31T14:19:40.548Z,20.10
2022-07-31T14:22:15.365Z,20.10
2022-07-31T14:24:49.306Z,20.21
2022-07-31T14:27:20.545Z,20.27
2022-07-31T14:29:48.637Z,20.38
2022-07-31T14:32:16.762Z,20.42
2022-07-31T14:34:46.215Z,20.57
2022-07-31T14:37:14.206Z,20.62
2022-07-31T14:39:42.815Z,20.64
2022-07-31T14:42:11.724Z,20.70
2022-07-31T14:44:41.854Z,20.66
2022-07-31T14:47:10.526Z,20.66
2022-07-31T14:50:07.138Z,20.64
2022-07-31T14:52:28.780Z,20.64
2022-07-31T14:54:58.248Z,20.61
2022-07-31T14:57:26.521Z,20.62
2022-07-31T14:59:54.498Z,20.69
2022-07-31T15:02:23.083Z,20.71
2022-07-31T15:04:51.782Z,20.67
2022-07-31T15:07:34.832Z,20.62
2022-07-31T15:10:06.483Z,20.66
2022-07-31T15:12:34.845Z,20.88
2022-07-31T15:15:03.149Z,21.09
2022-07-31T15:17:31.547Z,21.37
2022-07-31T15:19:59.459Z,21.60
2022-07-31T15:22:27.493Z,21.83
2022-07-31T15:24:55.476Z,21.99
2022-07-31T15:27:25.616Z,22.24
2022-07-31T15:30:04.353Z,22.19
2022-07-31T15:32:34.992Z,22.48
2022-07-31T15:35:03.269Z,22.74
2022-07-31T15:37:33.882Z,22.81
2022-07-31T15:40:03.720Z,23.13
2022-07-31T15:42:33.954Z,23.45
2022-07-31T15:45:02.845Z,23.66
2022-07-31T15:47:30.773Z,23.83
2022-07-31T15:49:58.773Z,23.91
2022-07-31T15:52:26.777Z,23.80
2022-07-31T15:54:54.901Z,23.79
2022-07-31T15:57:23.746Z,23.81
2022-07-31T15:59:55.166Z,23.95
2022-07-31T16:02:23.792Z,24.08
2022-07-31T16:04:54.846Z,24.08
2022-07-31T16:08:30.359Z,24.20
2022-07-31T16:10:17.648Z,24.13
2022-07-31T16:12:46.596Z,24.04
2022-07-31T16:15:16.718Z,24.01
2022-07-31T16:17:45.461Z,23.94
2022-07-31T16:20:26.338Z,23.61
2022-07-31T16:22:57.965Z,23.32
2022-07-31T16:25:26.949Z,23.49
2022-07-31T16:27:55.441Z,23.67
2022-07-31T16:30:27.241Z,23.90
2022-07-31T16:32:55.516Z,24.17
2022-07-31T16:35:26.089Z,24.13
2022-07-31T16:37:54.287Z,24.17
2022-07-31T16:40:28.769Z,24.25
2022-07-31T16:43:01.052Z,24.24
2022-07-31T16:45:31.125Z,24.24
2022-07-31T16:47:59.226Z,24.33
2022-07-31T16:50:27.528Z,24.44
2022-07-31T16:52:55.785Z,24.60
2022-07-31T16:55:51.695Z,24.62
2022-07-31T16:58:13.870Z,24.62
2022-07-31T17:00:43.224Z,24.59
2022-07-31T17:03:59.007Z,24.59
2022-07-31T17:05:59.680Z,24.46
2022-07-31T17:08:28.819Z,24.35
2022-07-31T17:10:56.832Z,24.23
2022-07-31T17:13:24.770Z,24.11
2022-07-31T17:15:54.163Z,23.91
2022-07-31T17:18:25.162Z,23.82
2022-07-31T17:20:55.940Z,23.85
2022-07-31T17:23:42.947Z,23.82
2022-07-31T17:26:21.499Z,23.72
2022-07-31T17:28:50.561Z,23.63
2022-07-31T17:31:20.124Z,23.51
2022-07-31T17:33:54.856Z,23.40
2022-07-31T17:36:28.301Z,23.26
2022-07-31T17:38:56.345Z,23.20
2022-07-31T17:41:25.888Z,23.08
2022-07-31T17:43:54.676Z,22.96
2022-07-31T17:46:29.345Z,22.73
2022-07-31T17:49:04.333Z,22.44
2022-07-31T17:51:33.087Z,22.18
2022-07-31T17:54:01.061Z,21.91
2022-07-31T17:56:29.524Z,21.70
2022-07-31T17:59:03.786Z,21.53
2022-07-31T18:01:34.515Z,21.31
2022-07-31T18:04:02.982Z,21.20
2022-07-31T18:06:31.281Z,21.06
2022-07-31T18:08:59.845Z,20.96
2022-07-31T18:11:28.324Z,20.82
2022-07-31T18:14:01.174Z,20.72
2022-07-31T18:16:33.098Z,20.57
2022-07-31T18:19:01.102Z,20.50
2022-07-31T18:21:29.014Z,20.45
2022-07-31T18:23:57.703Z,20.41
2022-07-31T18:26:27.989Z,20.33
2022-07-31T18:28:56.098Z,20.24
2022-07-31T18:31:32.353Z,20.20
2022-07-31T18:34:05.496Z,20.16
2022-07-31T18:36:33.592Z,20.13
2022-07-31T18:39:01.610Z,20.10
2022-07-31T18:41:29.908Z,20.07
2022-07-31T18:43:58.452Z,20.05
2022-07-31T18:46:26.420Z,19.99
2022-07-31T18:48:55.786Z,19.98
2022-07-31T18:51:26.538Z,19.95
2022-07-31T18:53:55.600Z,19.92
2022-07-31T18:56:24.408Z,19.92
2022-07-31T18:58:53.016Z,19.91
2022-07-31T19:01:21.953Z,19.89
2022-07-31T19:03:50.023Z,19.84
2022-07-31T19:06:18.436Z,19.79
2022-07-31T19:08:49.422Z,19.79
2022-07-31T19:11:17.573Z,19.73
2022-07-31T19:13:45.619Z,19.64
2022-07-31T19:16:15.030Z,19.60
2022-07-31T19:18:44.047Z,19.58
2022-07-31T19:21:22.637Z,19.53
2022-07-31T19:24:01.784Z,19.51
2022-07-31T19:26:29.848Z,19.47
2022-07-31T19:28:57.806Z,19.38
2022-07-31T19:31:25.753Z,19.24
2022-07-31T19:33:53.676Z,19.10
2022-07-31T19:36:21.587Z,19.07
2022-07-31T19:38:49.481Z,18.98
2022-07-31T19:41:18.759Z,18.98
2022-07-31T19:43:46.669Z,18.99
2022-07-31T19:46:14.603Z,18.99
2022-07-31T19:48:43.609Z,18.97
2022-07-31T19:51:11.855Z,19.03
2022-07-31T19:53:40.474Z,19.01
2022-07-31T19:56:09.003Z,19.03
2022-07-31T19:58:41.164Z,19.08
2022-07-31T20:01:11.506Z,19.06
2022-07-31T20:03:39.613Z,19.03
2022-07-31T20:06:07.957Z,18.96
2022-07-31T20:08:35.921Z,18.88
2022-07-31T20:11:05.773Z,18.83
2022-07-31T20:13:34.766Z,18.81
2022-07-31T20:16:04.391Z,18.78
2022-07-31T20:18:32.515Z,18.78
2022-07-31T20:21:03.362Z,18.70
2022-07-31T20:23:34.040Z,18.79
2022-07-31T20:26:02.481Z,18.77
2022-07-31T20:28:30.404Z,18.78
2022-07-31T20:30:58.493Z,18.68
2022-07-31T20:33:27.936Z,18.72
2022-07-31T20:35:55.962Z,18.68
2022-07-31T20:38:24.529Z,18.65
2022-07-31T20:40:55.867Z,18.60
2022-07-31T20:43:25.163Z,18.58
2022-07-31T20:45:53.954Z,18.53
2022-07-31T20:48:24.037Z,18.49
2022-07-31T20:50:53.898Z,18.52
2022-07-31T20:53:23.032Z,18.48
2022-07-31T20:55:50.931Z,18.44
2022-07-31T20:58:19.269Z,18.43
2022-07-31T21:00:47.653Z,18.45
2022-07-31T21:03:16.118Z,18.48
2022-07-31T21:05:44.094Z,18.45
2022-07-31T21:08:13.419Z,18.42
2022-07-31T21:10:41.398Z,18.37
2022-07-31T21:13:09.650Z,18.37
2022-07-31T21:15:43.751Z,18.34
2022-07-31T21:18:13.205Z,18.38
2022-07-31T21:20:50.751Z,18.30
2022-07-31T21:23:24.286Z,18.38
2022-07-31T21:25:52.808Z,18.33
2022-07-31T21:28:20.870Z,18.31
2022-07-31T21:30:49.062Z,18.23
2022-07-31T21:33:17.901Z,18.20
2022-07-31T21:35:46.909Z,18.21
2022-07-31T21:38:15.898Z,18.22
2022-07-31T21:40:46.054Z,18.21
2022-07-31T21:43:18.760Z,18.20
2022-07-31T21:45:57.409Z,18.20
2022-07-31T21:48:30.997Z,18.22
2022-07-31T21:50:59.600Z,18.22
2022-07-31T21:53:27.486Z,18.21
2022-07-31T21:55:58.885Z,18.19
2022-07-31T21:58:26.835Z,18.18
2022-07-31T22:00:54.796Z,18.19
2022-07-31T22:03:22.753Z,18.17
2022-07-31T22:06:08.006Z,18.15
2022-07-31T22:08:36.093Z,18.11
2022-07-31T22:11:05.377Z,18.10
2022-07-31T22:13:33.330Z,18.09
2022-07-31T22:16:01.707Z,18.05
2022-07-31T22:18:30.138Z,18.06
2022-07-31T22:20:58.338Z,18.03
2022-07-31T22:23:27.027Z,18.06
2022-07-31T22:25:55.869Z,18.05
2022-07-31T22:28:26.824Z,18.03
2022-07-31T22:30:55.499Z,17.96
2022-07-31T22:33:24.244Z,17.97
2022-07-31T22:35:59.615Z,17.96
2022-07-31T22:38:30.212Z,17.90
2022-07-31T22:40:58.679Z,17.83
2022-07-31T22:44:12.797Z,17.72
2022-07-31T22:46:16.356Z,17.68
2022-07-31T22:48:46.373Z,17.65
2022-07-31T22:51:15.415Z,17.67
2022-07-31T22:53:44.236Z,17.71
2022-07-31T22:56:12.253Z,17.74
2022-07-31T22:58:41.520Z,17.62
2022-07-31T23:01:09.408Z,17.54
2022-07-31T23:03:37.299Z,17.53
2022-07-31T23:06:29.631Z,17.54
2022-07-31T23:08:54.985Z,17.58
2022-07-31T23:11:24.478Z,17.63
2022-07-31T23:13:53.937Z,17.64
2022-07-31T23:16:22.012Z,17.66
2022-07-31T23:18:50.633Z,17.65
2022-07-31T23:21:19.463Z,17.65
2022-07-31T23:23:47.938Z,17.69
2022-07-31T23:26:16.947Z,17.69
2022-07-31T23:28:45.072Z,17.65
2022-07-31T23:31:14.525Z,17.62
2022-07-31T23:33:43.106Z,17.57
2022-07-31T23:36:11.193Z,17.58
2022-07-31T23:38:39.256Z,17.47
2022-07-31T23:41:07.207Z,17.45
2022-07-31T23:43:34.208Z,17.47
2022-07-31T23:46:02.209Z,17.46
2022-07-31T23:48:31.517Z,17.44
2022-07-31T23:50:59.953Z,17.44
2022-07-31T23:53:27.950Z,17.45
2022-07-31T23:55:55.829Z,17.43
2022-07-31T23:58:23.769Z,17.38
